createdAt,value
2022-09-15T00:02:24.673Z,100209.03
2022-09-15T00:04:51.359Z,100194.53
2022-09-15T00:07:17.857Z,100197.97
2022-09-15T00:09:44.353Z,100195.94
2022-09-15T00:12:10.967Z,100206.03
2022-09-15T00:14:37.470Z,100187.38
2022-09-15T00:17:04.311Z,100195.72
2022-09-15T00:19:30.863Z,100188.59
2022-09-15T00:21:57.356Z,100196.31
2022-09-15T00:24:23.840Z,100191.03
2022-09-15T00:26:50.649Z,100198.78
2022-09-15T00:29:17.172Z,100196.50
2022-09-15T00:31:43.727Z,100188.53
2022-09-15T00:34:12.676Z,100185.41
2022-09-15T00:36:39.221Z,100194.06
2022-09-15T00:39:05.748Z,100197.09
2022-09-15T00:41:32.696Z,100197.94
2022-09-15T00:44:02.984Z,100187.31
2022-09-15T00:46:38.555Z,100184.91
2022-09-15T00:49:09.468Z,100186.41
2022-09-15T00:51:50.899Z,100200.44
2022-09-15T00:54:26.630Z,100198.94
2022-09-15T00:56:56.549Z,100208.63
2022-09-15T00:59:26.403Z,100207.78
2022-09-15T01:02:01.080Z,100205.44
2022-09-15T01:04:27.666Z,100202.50
2022-09-15T01:06:59.647Z,100190.72
2022-09-15T01:09:49.104Z,100183.19
2022-09-15T01:12:16.452Z,100174.41
2022-09-15T01:14:42.973Z,100177.22
2022-09-15T01:17:34.436Z,100172.38
2022-09-15T01:20:11.830Z,100175.91
2022-09-15T01:23:26.771Z,100167.03
2022-09-15T01:25:53.240Z,100154.38
2022-09-15T01:28:53.579Z,100150.34
2022-09-15T01:32:17.440Z,100157.47
2022-09-15T01:35:00.740Z,100145.75
2022-09-15T01:37:34.390Z,100154.91
2022-09-15T01:40:02.592Z,100155.34
2022-09-15T01:42:32.209Z,100180.97
2022-09-15T01:45:05.114Z,100180.72
2022-09-15T01:47:34.134Z,100170.84
2022-09-15T01:50:10.152Z,100187.69
2022-09-15T01:52:40.902Z,100190.88
2022-09-15T01:55:14.392Z,100200.44
2022-09-15T01:57:40.948Z,100196.25
2022-09-15T02:00:08.407Z,100209.75
2022-09-15T02:02:49.561Z,100212.31
2022-09-15T02:05:38.207Z,100203.97
2022-09-15T02:08:27.775Z,100189.09
2022-09-15T02:11:12.818Z,100174.25
2022-09-15T02:13:48.690Z,100168.13
2022-09-15T02:16:24.560Z,100153.19
2022-09-15T02:19:08.818Z,100143.84
2022-09-15T02:22:07.657Z,100146.78
2022-09-15T02:24:41.000Z,100145.13
2022-09-15T02:27:13.135Z,100128.97
2022-09-15T02:29:42.174Z,100122.00
2022-09-15T02:32:09.873Z,100131.44
2022-09-15T02:34:41.454Z,100116.28
2022-09-15T02:37:09.678Z,100108.69
2022-09-15T02:39:42.268Z,100104.28
2022-09-15T02:42:09.408Z,100092.94
2022-09-15T02:44:36.410Z,100084.13
2022-09-15T02:47:03.860Z,100081.41
2022-09-15T02:49:30.631Z,100082.66
2022-09-15T02:51:57.147Z,100073.03
2022-09-15T02:54:23.632Z,100071.56
2022-09-15T02:56:50.382Z,100073.88
2022-09-15T02:59:16.861Z,100072.00
2022-09-15T03:01:44.903Z,100066.91
2022-09-15T03:04:11.609Z,100057.94
2022-09-15T03:06:38.103Z,100050.44
2022-09-15T03:09:07.438Z,100045.88
2022-09-15T03:11:35.409Z,100039.53
2022-09-15T03:14:04.740Z,100030.94
2022-09-15T03:16:34.417Z,100031.94
2022-09-15T03:19:01.347Z,100028.75
2022-09-15T03:21:29.603Z,100013.34
2022-09-15T03:23:57.947Z,100021.34
2022-09-15T03:26:24.790Z,100010.41
2022-09-15T03:28:51.281Z,100014.66
2022-09-15T03:31:17.843Z,100000.16
2022-09-15T03:33:44.343Z,99998.91
2022-09-15T03:36:11.099Z,99994.25
2022-09-15T03:38:37.997Z,99996.06
2022-09-15T03:41:10.527Z,99993.56
2022-09-15T03:43:37.953Z,99982.50
2022-09-15T03:46:07.067Z,99990.09
2022-09-15T03:48:35.459Z,99983.41
2022-09-15T03:51:03.751Z,99997.69
2022-09-15T03:53:35.398Z,100010.91
2022-09-15T03:56:31.211Z,100015.16
2022-09-15T03:58:59.040Z,100031.34
2022-09-15T04:01:26.116Z,100035.34
2022-09-15T04:03:52.883Z,100038.34
2022-09-15T04:06:22.092Z,100042.97
2022-09-15T04:08:52.811Z,100019.31
2022-09-15T04:11:21.102Z,100028.72
2022-09-15T04:13:48.559Z,100028.34
2022-09-15T04:16:18.454Z,100033.78
2022-09-15T04:18:45.960Z,100018.75
2022-09-15T04:21:15.043Z,100023.78
2022-09-15T04:23:43.139Z,100022.31
2022-09-15T04:26:19.169Z,100024.22
2022-09-15T04:28:45.661Z,100014.81
2022-09-15T04:31:14.243Z,100028.84
2022-09-15T04:33:41.357Z,100033.00
2022-09-15T04:36:11.172Z,100028.91
2022-09-15T04:38:38.737Z,100022.19
2022-09-15T04:41:06.750Z,100031.78
2022-09-15T04:43:34.223Z,100040.19
2022-09-15T04:46:00.964Z,100045.88
2022-09-15T04:48:28.306Z,100048.16
2022-09-15T04:50:54.966Z,100042.25
2022-09-15T04:53:21.686Z,100037.19
2022-09-15T04:55:48.314Z,100047.06
2022-09-15T04:58:14.787Z,100057.97
2022-09-15T05:00:45.711Z,100059.84
2022-09-15T05:03:14.166Z,100076.63
2022-09-15T05:05:41.441Z,100072.84
2022-09-15T05:08:08.153Z,100075.94
2022-09-15T05:10:34.944Z,100078.44
2022-09-15T05:13:01.419Z,100088.47
2022-09-15T05:15:27.944Z,100092.88
2022-09-15T05:17:54.439Z,100101.69
2022-09-15T05:20:20.982Z,100112.59
2022-09-15T05:22:47.492Z,100119.91
2022-09-15T05:25:14.148Z,100116.03
2022-09-15T05:27:40.629Z,100118.31
2022-09-15T05:30:35.921Z,100121.28
2022-09-15T05:32:54.547Z,100138.09
2022-09-15T05:35:21.069Z,100138.25
2022-09-15T05:37:47.571Z,100152.75
2022-09-15T05:40:15.243Z,100142.38
2022-09-15T05:42:41.747Z,100150.59
2022-09-15T05:45:08.950Z,100143.00
2022-09-15T05:47:35.418Z,100142.81
2022-09-15T05:50:01.926Z,100123.72
2022-09-15T05:52:28.444Z,100133.06
2022-09-15T05:54:58.994Z,100137.88
2022-09-15T05:57:25.885Z,100137.88
2022-09-15T05:59:52.444Z,100134.25
2022-09-15T06:02:19.041Z,100144.00
2022-09-15T06:04:45.611Z,100139.75
2022-09-15T06:07:12.384Z,100136.66
2022-09-15T06:09:39.373Z,100140.41
2022-09-15T06:12:06.068Z,100146.09
2022-09-15T06:14:32.818Z,100156.00
2022-09-15T06:16:59.304Z,100142.13
2022-09-15T06:19:25.753Z,100160.91
2022-09-15T06:21:52.735Z,100170.78
2022-09-15T06:24:19.440Z,100163.16
2022-09-15T06:26:45.955Z,100161.97
2022-09-15T06:29:12.983Z,100162.72
2022-09-15T06:31:39.583Z,100156.13
2022-09-15T06:34:06.676Z,100152.41
2022-09-15T06:36:33.180Z,100155.69
2022-09-15T06:39:00.079Z,100170.97
2022-09-15T06:41:33.051Z,100182.75
2022-09-15T06:44:13.820Z,100165.53
2022-09-15T06:46:40.315Z,100166.63
2022-09-15T06:49:07.085Z,100183.03
2022-09-15T06:51:35.554Z,100176.75
2022-09-15T06:54:03.013Z,100166.44
2022-09-15T06:56:30.949Z,100161.63
2022-09-15T06:59:00.081Z,100169.75
2022-09-15T07:01:29.417Z,100159.34
2022-09-15T07:03:58.122Z,100174.41
2022-09-15T07:06:27.259Z,100152.50
2022-09-15T07:08:53.940Z,100147.41
2022-09-15T07:11:20.596Z,100175.00
2022-09-15T07:13:50.395Z,100168.81
2022-09-15T07:16:19.074Z,100160.22
2022-09-15T07:18:46.623Z,100162.31
2022-09-15T07:21:16.647Z,100173.91
2022-09-15T07:23:44.258Z,100162.75
2022-09-15T07:26:13.907Z,100162.94
2022-09-15T07:28:43.733Z,100165.97
2022-09-15T07:31:12.507Z,100170.28
2022-09-15T07:33:39.300Z,100163.44
2022-09-15T07:36:07.890Z,100151.59
2022-09-15T07:38:40.236Z,100147.41
2022-09-15T07:41:14.543Z,100147.19
2022-09-15T07:43:45.650Z,100148.53
2022-09-15T07:46:12.224Z,100156.53
2022-09-15T07:48:38.904Z,100161.28
2022-09-15T07:51:05.611Z,100157.69
2022-09-15T07:53:32.763Z,100162.91
2022-09-15T07:55:59.208Z,100158.47
2022-09-15T07:58:25.747Z,100160.19
2022-09-15T08:00:52.545Z,100155.72
2022-09-15T08:03:19.164Z,100146.28
2022-09-15T08:05:46.235Z,100162.19
2022-09-15T08:08:12.999Z,100151.56
2022-09-15T08:10:41.728Z,100148.34
2022-09-15T08:13:08.472Z,100160.34
2022-09-15T08:15:38.713Z,100147.94
2022-09-15T08:18:05.887Z,100154.44
2022-09-15T08:20:32.853Z,100166.28
2022-09-15T08:22:59.481Z,100166.84
2022-09-15T08:25:26.057Z,100158.94
2022-09-15T08:27:54.431Z,100163.53
2022-09-15T08:30:21.867Z,100167.00
2022-09-15T08:32:48.860Z,100166.03
2022-09-15T08:35:15.927Z,100138.16
2022-09-15T08:37:42.667Z,100148.56
2022-09-15T08:40:22.452Z,100147.09
2022-09-15T08:42:52.124Z,100132.03
2022-09-15T08:45:28.606Z,100129.13
2022-09-15T08:48:00.220Z,100134.84
2022-09-15T08:50:40.899Z,100116.44
2022-09-15T08:53:19.943Z,100129.25
2022-09-15T08:55:52.574Z,100134.66
2022-09-15T08:58:25.298Z,100123.16
2022-09-15T09:01:12.062Z,100124.31
2022-09-15T09:03:58.916Z,100128.75
2022-09-15T09:07:03.751Z,100125.44
2022-09-15T09:09:44.989Z,100119.69
2022-09-15T09:12:29.309Z,100111.78
2022-09-15T09:15:27.077Z,100114.25
2022-09-15T09:18:35.321Z,100118.03
2022-09-15T09:21:16.923Z,100117.19
2022-09-15T09:23:49.834Z,100119.69
2022-09-15T09:26:16.597Z,100112.44
2022-09-15T09:28:50.192Z,100109.28
2022-09-15T09:31:21.376Z,100099.38
2022-09-15T09:33:56.977Z,100091.25
2022-09-15T09:36:23.676Z,100096.50
2022-09-15T09:38:50.958Z,100080.06
2022-09-15T09:41:19.252Z,100078.81
2022-09-15T09:43:48.893Z,100068.16
2022-09-15T09:46:18.051Z,100056.16
2022-09-15T09:48:52.224Z,100067.25
2022-09-15T09:51:39.206Z,100064.34
2022-09-15T09:54:16.451Z,100061.59
2022-09-15T09:56:44.611Z,100063.38
2022-09-15T09:59:44.839Z,100049.56
2022-09-15T10:02:11.285Z,100049.22
2022-09-15T10:04:58.703Z,100047.56
2022-09-15T10:07:26.761Z,100044.28
2022-09-15T10:09:59.677Z,100042.66
2022-09-15T10:12:32.793Z,100038.09
2022-09-15T10:15:05.192Z,100036.69
2022-09-15T10:17:52.232Z,100045.59
2022-09-15T10:20:25.451Z,100035.00
2022-09-15T10:22:52.545Z,100036.56
2022-09-15T10:25:22.058Z,100039.81
2022-09-15T10:28:14.739Z,100038.75
2022-09-15T10:30:59.825Z,100035.72
2022-09-15T10:33:29.047Z,100031.50
2022-09-15T10:36:02.111Z,100031.22
2022-09-15T10:38:40.695Z,100030.19
2022-09-15T10:41:28.772Z,100015.38
2022-09-15T10:44:32.961Z,100009.78
2022-09-15T10:47:35.603Z,99994.03
2022-09-15T10:50:34.481Z,99991.13
2022-09-15T10:53:22.300Z,99983.38
2022-09-15T10:56:18.263Z,99973.38
2022-09-15T10:58:56.886Z,99968.75
2022-09-15T11:01:29.667Z,99971.84
2022-09-15T11:04:20.891Z,99958.00
2022-09-15T11:07:07.699Z,99958.56
2022-09-15T11:09:57.444Z,99958.41
2022-09-15T11:12:49.540Z,99955.97
2022-09-15T11:15:35.842Z,99948.63
2022-09-15T11:18:41.488Z,99951.00
2022-09-15T11:21:24.821Z,99950.81
2022-09-15T11:24:03.624Z,99954.94
2022-09-15T11:26:37.003Z,99954.78
2022-09-15T11:29:11.129Z,99958.94
2022-09-15T11:31:41.980Z,99961.19
2022-09-15T11:34:23.380Z,99959.56
2022-09-15T11:36:49.868Z,99950.88
2022-09-15T11:39:33.190Z,99935.91
2022-09-15T11:42:19.183Z,99954.00
2022-09-15T11:44:47.951Z,99948.63
2022-09-15T11:47:26.257Z,99950.06
2022-09-15T11:50:11.021Z,99934.47
2022-09-15T11:52:52.212Z,99935.31
2022-09-15T11:55:54.258Z,99934.09
2022-09-15T11:58:32.969Z,99938.53
2022-09-15T12:01:02.570Z,99931.78
2022-09-15T12:03:48.302Z,99926.31
2022-09-15T12:06:29.736Z,99923.53
2022-09-15T12:09:02.118Z,99909.88
2022-09-15T12:11:32.167Z,99922.50
2022-09-15T12:13:59.953Z,99927.06
2022-09-15T12:16:28.090Z,99931.41
2022-09-15T12:18:56.473Z,99933.84
2022-09-15T12:21:25.979Z,99924.94
2022-09-15T12:24:23.436Z,99920.63
2022-09-15T12:26:50.006Z,99927.34
2022-09-15T12:29:22.456Z,99934.38
2022-09-15T12:31:49.029Z,99931.63
2022-09-15T12:34:37.014Z,99923.44
2022-09-15T12:37:10.530Z,99923.28
2022-09-15T12:39:42.275Z,99925.31
2022-09-15T12:42:17.989Z,99934.31
2022-09-15T12:44:49.961Z,99933.25
2022-09-15T12:47:31.759Z,99946.34
2022-09-15T12:50:07.231Z,99942.53
2022-09-15T12:52:44.949Z,99932.66
2022-09-15T12:55:19.061Z,99926.84
2022-09-15T12:57:52.475Z,99926.75
2022-09-15T13:00:32.677Z,99923.94
2022-09-15T13:03:00.462Z,99921.97
2022-09-15T13:05:41.976Z,99922.09
2022-09-15T13:08:15.312Z,99910.66
2022-09-15T13:10:59.518Z,99899.09
2022-09-15T13:13:43.792Z,99903.38
2022-09-15T13:16:33.706Z,99914.72
2022-09-15T13:19:08.928Z,99896.75
2022-09-15T13:21:38.391Z,99893.88
2022-09-15T13:24:08.406Z,99893.50
2022-09-15T13:26:37.501Z,99900.06
2022-09-15T13:29:06.354Z,99894.94
2022-09-15T13:31:48.122Z,99891.31
2022-09-15T13:38:06.935Z,99904.34
2022-09-15T13:41:14.440Z,99896.38
2022-09-15T13:43:47.449Z,99898.50
2022-09-15T13:46:43.508Z,99890.22
2022-09-15T13:49:37.318Z,99876.34
2022-09-15T13:52:18.705Z,99874.34
2022-09-15T13:55:17.355Z,99855.94
2022-09-15T14:00:44.195Z,99842.78
2022-09-15T14:03:16.345Z,99848.22
2022-09-15T14:05:44.703Z,99838.25
2022-09-15T14:08:19.350Z,99843.28
2022-09-15T14:10:50.334Z,99834.13
2022-09-15T14:13:21.202Z,99835.69
2022-09-15T14:16:19.146Z,99833.59
2022-09-15T14:18:46.646Z,99830.28
2022-09-15T14:21:25.034Z,99823.38
2022-09-15T14:23:57.827Z,99825.22
2022-09-15T14:26:30.576Z,99826.88
2022-09-15T14:29:02.846Z,99827.84
2022-09-15T14:31:37.258Z,99837.47
2022-09-15T14:34:08.341Z,99850.50
2022-09-15T14:36:35.156Z,99837.06
2022-09-15T14:39:27.878Z,99838.72
2022-09-15T14:41:54.486Z,99844.25
2022-09-15T14:47:27.849Z,99833.41
2022-09-15T14:50:24.092Z,99840.28
2022-09-15T14:52:54.888Z,99828.50
2022-09-15T14:55:42.377Z,99818.31
2022-09-15T14:58:30.291Z,99827.84
2022-09-15T15:01:15.524Z,99796.72
2022-09-15T15:03:57.309Z,99821.88
2022-09-15T15:06:59.140Z,99800.72
2022-09-15T15:09:44.675Z,99803.91
2022-09-15T15:12:26.475Z,99805.75
2022-09-15T15:14:55.068Z,99785.78
2022-09-15T15:17:30.184Z,99790.00
2022-09-15T15:20:18.897Z,99770.72
2022-09-15T15:22:46.181Z,99765.03
2022-09-15T15:25:32.159Z,99766.75
2022-09-15T15:28:00.139Z,99764.09
2022-09-15T15:30:35.298Z,99760.06
2022-09-15T15:33:19.442Z,99753.72
2022-09-15T15:35:46.717Z,99751.50
2022-09-15T15:38:18.335Z,99743.50
2022-09-15T15:40:45.773Z,99739.97
2022-09-15T15:43:26.469Z,99737.16
2022-09-15T15:46:00.976Z,99740.97
2022-09-15T15:48:32.820Z,99743.38
2022-09-15T15:51:04.729Z,99740.25
2022-09-15T15:53:31.513Z,99744.63
2022-09-15T15:55:59.705Z,99740.72
2022-09-15T15:58:26.362Z,99727.19
2022-09-15T16:00:56.383Z,99737.09
2022-09-15T16:03:24.539Z,99741.31
2022-09-15T16:05:59.418Z,99741.88
2022-09-15T16:08:39.701Z,99740.88
2022-09-15T16:11:09.813Z,99756.13
2022-09-15T16:13:36.328Z,99752.59
2022-09-15T16:16:13.895Z,99757.59
2022-09-15T16:18:40.555Z,99755.97
2022-09-15T16:21:07.076Z,99761.00
2022-09-15T16:23:33.762Z,99761.59
2022-09-15T16:26:05.540Z,99761.88
2022-09-15T16:28:32.103Z,99756.91
2022-09-15T16:30:59.398Z,99739.28
2022-09-15T16:33:26.599Z,99732.16
2022-09-15T16:35:55.808Z,99743.47
2022-09-15T16:38:25.693Z,99732.69
2022-09-15T16:40:52.652Z,99738.00
2022-09-15T16:43:22.515Z,99731.91
2022-09-15T16:45:49.891Z,99733.59
2022-09-15T16:48:17.168Z,99725.06
2022-09-15T16:50:55.821Z,99729.22
2022-09-15T16:53:31.500Z,99722.06
2022-09-15T16:55:58.030Z,99730.91
2022-09-15T16:58:24.527Z,99729.25
2022-09-15T17:00:52.533Z,99731.47
2022-09-15T17:03:21.859Z,99723.22
2022-09-15T17:05:53.311Z,99726.78
2022-09-15T17:08:22.309Z,99733.97
2022-09-15T17:10:49.846Z,99728.47
2022-09-15T17:13:21.659Z,99728.47
2022-09-15T17:15:50.892Z,99716.63
2022-09-15T17:18:17.426Z,99711.91
2022-09-15T17:20:47.005Z,99716.31
2022-09-15T17:23:23.570Z,99713.25
2022-09-15T17:25:59.020Z,99706.09
2022-09-15T17:28:28.802Z,99712.69
2022-09-15T17:31:05.961Z,99712.38
2022-09-15T17:33:33.252Z,99713.75
2022-09-15T17:36:00.353Z,99706.31
2022-09-15T17:38:27.159Z,99719.53
2022-09-15T17:40:55.288Z,99716.75
2022-09-15T17:43:25.178Z,99717.59
2022-09-15T17:45:52.524Z,99726.94
2022-09-15T17:48:19.704Z,99727.22
2022-09-15T17:50:48.819Z,99727.19
2022-09-15T17:53:17.079Z,99731.88
2022-09-15T17:55:43.688Z,99731.06
2022-09-15T17:58:10.483Z,99740.66
2022-09-15T18:00:39.315Z,99746.16
2022-09-15T18:03:17.351Z,99743.91
2022-09-15T18:05:43.865Z,99742.50
2022-09-15T18:08:10.408Z,99753.75
2022-09-15T18:10:37.527Z,99751.78
2022-09-15T18:13:06.301Z,99757.53
2022-09-15T18:15:34.794Z,99763.03
2022-09-15T18:18:04.186Z,99760.25
2022-09-15T18:20:32.736Z,99770.16
2022-09-15T18:23:00.113Z,99762.97
2022-09-15T18:25:36.823Z,99783.06
2022-09-15T18:28:04.027Z,99781.66
2022-09-15T18:30:33.681Z,99800.97
2022-09-15T18:33:00.335Z,99782.47
2022-09-15T18:35:26.900Z,99785.22
2022-09-15T18:37:59.395Z,99794.88
2022-09-15T18:40:27.507Z,99803.09
2022-09-15T18:42:54.224Z,99809.38
2022-09-15T18:45:21.773Z,99803.59
2022-09-15T18:47:50.304Z,99815.16
2022-09-15T18:50:18.960Z,99810.66
2022-09-15T18:52:45.832Z,99816.72
2022-09-15T18:55:22.671Z,99813.88
2022-09-15T18:57:49.546Z,99807.72
2022-09-15T19:00:19.674Z,99816.19
2022-09-15T19:02:46.498Z,99819.47
2022-09-15T19:05:15.613Z,99819.03
2022-09-15T19:07:43.506Z,99817.19
2022-09-15T19:10:11.593Z,99818.25
2022-09-15T19:12:38.854Z,99816.75
2022-09-15T19:15:10.785Z,99823.56
2022-09-15T19:17:38.724Z,99816.94
2022-09-15T19:20:07.458Z,99808.13
2022-09-15T19:22:34.627Z,99806.44
2022-09-15T19:25:01.400Z,99813.34
2022-09-15T19:27:28.031Z,99813.09
2022-09-15T19:29:54.693Z,99816.88
2022-09-15T19:32:23.439Z,99827.53
2022-09-15T19:34:50.035Z,99808.50
2022-09-15T19:37:19.082Z,99825.81
2022-09-15T19:39:46.872Z,99821.06
2022-09-15T19:42:16.905Z,99834.56
2022-09-15T19:44:43.673Z,99840.19
2022-09-15T19:47:10.502Z,99838.84
2022-09-15T19:49:37.144Z,99826.28
2022-09-15T19:52:05.298Z,99834.16
2022-09-15T19:54:32.168Z,99838.16
2022-09-15T19:56:58.730Z,99839.25
2022-09-15T19:59:30.202Z,99839.66
2022-09-15T20:01:58.069Z,99849.09
2022-09-15T20:04:24.819Z,99841.19
2022-09-15T20:06:51.821Z,99846.09
2022-09-15T20:09:18.765Z,99850.41
2022-09-15T20:11:45.499Z,99849.88
2022-09-15T20:14:12.011Z,99851.56
2022-09-15T20:16:38.540Z,99851.56
2022-09-15T20:19:05.672Z,99850.97
2022-09-15T20:21:51.613Z,99848.06
2022-09-15T20:24:19.044Z,99852.44
2022-09-15T20:26:45.575Z,99857.94
2022-09-15T20:29:13.113Z,99855.91
2022-09-15T20:31:40.031Z,99857.59
2022-09-15T20:34:06.578Z,99848.41
2022-09-15T20:36:36.433Z,99856.47
2022-09-15T20:39:04.572Z,99846.09
2022-09-15T20:41:34.409Z,99855.97
2022-09-15T20:44:01.070Z,99849.88
2022-09-15T20:46:29.322Z,99848.72
2022-09-15T20:48:55.868Z,99851.72
2022-09-15T20:51:25.474Z,99859.69
2022-09-15T20:53:54.290Z,99857.69
2022-09-15T20:56:24.873Z,99854.75
2022-09-15T20:58:56.560Z,99847.00
2022-09-15T21:01:32.921Z,99856.69
2022-09-15T21:03:59.483Z,99844.06
2022-09-15T21:06:27.986Z,99850.13
2022-09-15T21:08:55.579Z,99861.78
2022-09-15T21:11:23.936Z,99843.81
2022-09-15T21:13:50.798Z,99858.09
2022-09-15T21:16:21.906Z,99859.44
2022-09-15T21:18:49.186Z,99867.66
2022-09-15T21:21:21.949Z,99864.53
2022-09-15T21:24:03.416Z,99870.03
2022-09-15T21:26:32.593Z,99863.72
2022-09-15T21:28:59.163Z,99861.13
2022-09-15T21:31:28.438Z,99868.50
2022-09-15T21:33:55.580Z,99869.22
2022-09-15T21:36:30.655Z,99868.59
2022-09-15T21:38:59.028Z,99856.22
2022-09-15T21:41:28.052Z,99864.94
2022-09-15T21:43:55.276Z,99863.16
2022-09-15T21:46:27.429Z,99858.75
2022-09-15T21:48:55.957Z,99856.38
2022-09-15T21:51:25.041Z,99860.81
2022-09-15T21:53:56.265Z,99855.91
2022-09-15T21:56:23.599Z,99864.22
2022-09-15T21:58:50.091Z,99859.59
2022-09-15T22:01:22.725Z,99863.16
2022-09-15T22:04:10.311Z,99857.81
2022-09-15T22:06:40.427Z,99859.63
2022-09-15T22:09:14.431Z,99862.97
2022-09-15T22:11:41.238Z,99860.25
2022-09-15T22:14:08.696Z,99850.13
2022-09-15T22:16:37.340Z,99851.31
2022-09-15T22:19:05.356Z,99863.31
2022-09-15T22:21:32.604Z,99860.34
2022-09-15T22:23:59.524Z,99865.34
2022-09-15T22:26:28.206Z,99862.50
2022-09-15T22:28:56.054Z,99864.16
2022-09-15T22:31:24.149Z,99877.03
2022-09-15T22:33:50.885Z,99866.56
2022-09-15T22:36:28.603Z,99869.78
2022-09-15T22:39:02.771Z,99873.09
2022-09-15T22:41:29.713Z,99864.88
2022-09-15T22:43:56.405Z,99869.31
2022-09-15T22:46:23.053Z,99873.09
2022-09-15T22:48:49.625Z,99872.63
2022-09-15T22:51:16.465Z,99865.75
2022-09-15T22:53:43.048Z,99871.22
2022-09-15T22:56:20.651Z,99866.81
2022-09-15T22:58:48.497Z,99878.81
2022-09-15T23:01:17.749Z,99879.41
2022-09-15T23:03:47.451Z,99876.69
2022-09-15T23:06:14.419Z,99865.97
2022-09-15T23:08:41.181Z,99869.06
2022-09-15T23:11:10.853Z,99860.28
2022-09-15T23:13:38.068Z,99864.91
2022-09-15T23:16:05.768Z,99862.16
2022-09-15T23:18:33.262Z,99862.41
2022-09-15T23:21:02.812Z,99861.09
2022-09-15T23:23:30.227Z,99860.13
2022-09-15T23:25:56.779Z,99862.28
2022-09-15T23:28:24.491Z,99864.31
2022-09-15T23:30:53.065Z,99862.88
2022-09-15T23:33:19.773Z,99866.91
2022-09-15T23:35:47.034Z,99856.09
2022-09-15T23:38:13.969Z,99852.25
2022-09-15T23:40:42.578Z,99864.28
2022-09-15T23:43:13.817Z,99863.09
2022-09-15T23:45:40.502Z,99859.75
2022-09-15T23:48:08.296Z,99862.84
2022-09-15T23:50:35.841Z,99851.44
2022-09-15T23:53:02.595Z,99849.03
2022-09-15T23:55:29.142Z,99863.16
2022-09-15T23:57:56.094Z,99863.88
